sensor_id;sensor_type;location;lat;lon;timestamp;P1;durP1;ratioP1;P2;durP2;ratioP2
44720;SDS011;30450;52.534;13.398;2022-09-27T00:02:20;2.28;;;1.48;;
44720;SDS011;30450;52.534;13.398;2022-09-27T00:04:46;3.35;;;2.05;;
44720;SDS011;30450;52.534;13.398;2022-09-27T00:07:12;5.13;;;1.77;;
44720;SDS011;30450;52.534;13.398;2022-09-27T00:09:38;2.55;;;1.83;;
44720;SDS011;30450;52.534;13.398;2022-09-27T00:12:03;2.78;;;1.92;;
44720;SDS011;30450;52.534;13.398;2022-09-27T00:14:29;3.38;;;1.55;;
44720;SDS011;30450;52.534;13.398;2022-09-27T00:16:55;3.17;;;2.00;;
44720;SDS011;30450;52.534;13.398;2022-09-27T00:19:20;4.43;;;1.90;;
44720;SDS011;30450;52.534;13.398;2022-09-27T00:21:48;5.93;;;2.10;;
44720;SDS011;30450;52.534;13.398;2022-09-27T00:24:18;2.47;;;1.60;;
44720;SDS011;30450;52.534;13.398;2022-09-27T00:26:44;3.83;;;1.85;;
44720;SDS011;30450;52.534;13.398;2022-09-27T00:29:12;2.28;;;1.75;;
44720;SDS011;30450;52.534;13.398;2022-09-27T00:31:38;1.42;;;1.30;;
44720;SDS011;30450;52.534;13.398;2022-09-27T00:34:04;3.88;;;1.70;;
44720;SDS011;30450;52.534;13.398;2022-09-27T00:36:31;2.75;;;1.48;;
44720;SDS011;30450;52.534;13.398;2022-09-27T00:38:57;3.88;;;1.67;;
44720;SDS011;30450;52.534;13.398;2022-09-27T00:41:26;2.75;;;1.58;;
44720;SDS011;30450;52.534;13.398;2022-09-27T00:43:56;3.85;;;1.52;;
44720;SDS011;30450;52.534;13.398;2022-09-27T00:49:02;3.65;;;2.00;;
44720;SDS011;30450;52.534;13.398;2022-09-27T00:51:29;1.80;;;1.27;;
44720;SDS011;30450;52.534;13.398;2022-09-27T00:53:56;2.17;;;1.92;;
44720;SDS011;30450;52.534;13.398;2022-09-27T00:56:23;2.35;;;1.50;;
44720;SDS011;30450;52.534;13.398;2022-09-27T00:58:58;4.43;;;1.75;;
44720;SDS011;30450;52.534;13.398;2022-09-27T01:01:25;2.33;;;1.42;;
44720;SDS011;30450;52.534;13.398;2022-09-27T01:04:02;3.92;;;1.83;;
44720;SDS011;30450;52.534;13.398;2022-09-27T01:06:29;4.40;;;1.63;;
44720;SDS011;30450;52.534;13.398;2022-09-27T01:08:55;3.65;;;2.13;;
44720;SDS011;30450;52.534;13.398;2022-09-27T01:11:27;3.42;;;1.63;;
44720;SDS011;30450;52.534;13.398;2022-09-27T01:16:36;2.38;;;1.35;;
44720;SDS011;30450;52.534;13.398;2022-09-27T01:26:37;3.85;;;2.25;;
44720;SDS011;30450;52.534;13.398;2022-09-27T01:29:12;2.17;;;1.45;;
44720;SDS011;30450;52.534;13.398;2022-09-27T01:34:34;1.83;;;1.50;;
44720;SDS011;30450;52.534;13.398;2022-09-27T01:37:18;2.08;;;1.50;;
44720;SDS011;30450;52.534;13.398;2022-09-27T01:42:56;5.30;;;1.50;;
44720;SDS011;30450;52.534;13.398;2022-09-27T01:45:25;17.58;;;2.00;;
44720;SDS011;30450;52.534;13.398;2022-09-27T01:47:58;2.83;;;1.73;;
44720;SDS011;30450;52.534;13.398;2022-09-27T01:53:34;3.17;;;1.77;;
44720;SDS011;30450;52.534;13.398;2022-09-27T01:56:01;1.88;;;1.67;;
44720;SDS011;30450;52.534;13.398;2022-09-27T01:58:30;6.28;;;1.75;;
44720;SDS011;30450;52.534;13.398;2022-09-27T02:00:56;6.65;;;2.05;;
44720;SDS011;30450;52.534;13.398;2022-09-27T02:03:25;4.00;;;2.00;;
44720;SDS011;30450;52.534;13.398;2022-09-27T02:08:20;2.95;;;1.23;;
44720;SDS011;30450;52.534;13.398;2022-09-27T02:10:47;2.67;;;1.50;;
44720;SDS011;30450;52.534;13.398;2022-09-27T02:13:21;2.10;;;1.30;;
44720;SDS011;30450;52.534;13.398;2022-09-27T02:16:00;1.75;;;1.08;;
44720;SDS011;30450;52.534;13.398;2022-09-27T02:18:31;2.20;;;1.40;;
44720;SDS011;30450;52.534;13.398;2022-09-27T02:20:59;1.58;;;1.40;;
44720;SDS011;30450;52.534;13.398;2022-09-27T02:23:32;4.38;;;1.45;;
44720;SDS011;30450;52.534;13.398;2022-09-27T02:26:00;4.72;;;1.38;;
44720;SDS011;30450;52.534;13.398;2022-09-27T02:28:29;3.17;;;1.65;;
44720;SDS011;30450;52.534;13.398;2022-09-27T02:30:56;1.67;;;1.50;;
44720;SDS011;30450;52.534;13.398;2022-09-27T02:33:25;2.20;;;1.30;;
44720;SDS011;30450;52.534;13.398;2022-09-27T02:35:51;2.75;;;1.42;;
44720;SDS011;30450;52.534;13.398;2022-09-27T02:38:17;1.45;;;1.15;;
44720;SDS011;30450;52.534;13.398;2022-09-27T02:40:43;2.13;;;1.33;;
44720;SDS011;30450;52.534;13.398;2022-09-27T02:43:09;4.22;;;1.27;;
44720;SDS011;30450;52.534;13.398;2022-09-27T02:45:52;1.75;;;1.30;;
44720;SDS011;30450;52.534;13.398;2022-09-27T02:48:20;2.00;;;1.85;;
44720;SDS011;30450;52.534;13.398;2022-09-27T02:55:58;4.03;;;1.30;;
44720;SDS011;30450;52.534;13.398;2022-09-27T03:01:01;4.40;;;1.95;;
44720;SDS011;30450;52.534;13.398;2022-09-27T03:03:34;3.50;;;1.38;;
44720;SDS011;30450;52.534;13.398;2022-09-27T03:06:04;3.55;;;1.35;;
44720;SDS011;30450;52.534;13.398;2022-09-27T03:08:31;2.58;;;1.35;;
44720;SDS011;30450;52.534;13.398;2022-09-27T03:10:56;1.58;;;1.27;;
44720;SDS011;30450;52.534;13.398;2022-09-27T03:13:22;4.22;;;1.30;;
44720;SDS011;30450;52.534;13.398;2022-09-27T03:15:48;2.38;;;1.38;;
44720;SDS011;30450;52.534;13.398;2022-09-27T03:18:14;2.90;;;1.40;;
44720;SDS011;30450;52.534;13.398;2022-09-27T03:20:40;2.22;;;1.50;;
44720;SDS011;30450;52.534;13.398;2022-09-27T03:23:06;3.25;;;1.30;;
44720;SDS011;30450;52.534;13.398;2022-09-27T03:25:31;3.25;;;1.45;;
44720;SDS011;30450;52.534;13.398;2022-09-27T03:27:57;3.58;;;1.65;;
44720;SDS011;30450;52.534;13.398;2022-09-27T03:30:24;5.63;;;1.60;;
44720;SDS011;30450;52.534;13.398;2022-09-27T03:32:49;8.77;;;1.38;;
44720;SDS011;30450;52.534;13.398;2022-09-27T03:35:15;2.33;;;1.48;;
44720;SDS011;30450;52.534;13.398;2022-09-27T03:37:41;2.88;;;1.45;;
44720;SDS011;30450;52.534;13.398;2022-09-27T03:40:07;3.63;;;1.58;;
44720;SDS011;30450;52.534;13.398;2022-09-27T03:42:33;3.05;;;1.92;;
44720;SDS011;30450;52.534;13.398;2022-09-27T03:44:59;3.28;;;1.40;;
44720;SDS011;30450;52.534;13.398;2022-09-27T03:47:25;2.95;;;1.35;;
44720;SDS011;30450;52.534;13.398;2022-09-27T03:49:50;2.88;;;1.70;;
44720;SDS011;30450;52.534;13.398;2022-09-27T03:52:16;3.28;;;1.90;;
44720;SDS011;30450;52.534;13.398;2022-09-27T03:54:43;3.05;;;1.85;;
44720;SDS011;30450;52.534;13.398;2022-09-27T03:57:09;2.45;;;1.73;;
44720;SDS011;30450;52.534;13.398;2022-09-27T03:59:35;3.55;;;2.30;;
44720;SDS011;30450;52.534;13.398;2022-09-27T04:02:01;2.85;;;1.40;;
44720;SDS011;30450;52.534;13.398;2022-09-27T04:04:27;2.97;;;2.20;;
44720;SDS011;30450;52.534;13.398;2022-09-27T04:06:53;3.47;;;1.80;;
44720;SDS011;30450;52.534;13.398;2022-09-27T04:09:18;3.90;;;2.15;;
44720;SDS011;30450;52.534;13.398;2022-09-27T04:11:44;4.35;;;2.17;;
44720;SDS011;30450;52.534;13.398;2022-09-27T04:14:10;3.40;;;1.90;;
44720;SDS011;30450;52.534;13.398;2022-09-27T04:16:38;5.05;;;2.67;;
44720;SDS011;30450;52.534;13.398;2022-09-27T04:19:05;2.92;;;1.80;;
44720;SDS011;30450;52.534;13.398;2022-09-27T04:21:32;4.50;;;1.90;;
44720;SDS011;30450;52.534;13.398;2022-09-27T04:23:57;1.90;;;1.75;;
44720;SDS011;30450;52.534;13.398;2022-09-27T04:26:23;2.38;;;2.10;;
44720;SDS011;30450;52.534;13.398;2022-09-27T04:28:50;2.30;;;1.40;;
44720;SDS011;30450;52.534;13.398;2022-09-27T04:31:17;3.83;;;1.90;;
44720;SDS011;30450;52.534;13.398;2022-09-27T04:33:43;5.05;;;1.85;;
44720;SDS011;30450;52.534;13.398;2022-09-27T04:36:19;5.05;;;1.60;;
44720;SDS011;30450;52.534;13.398;2022-09-27T04:38:54;2.08;;;1.85;;
44720;SDS011;30450;52.534;13.398;2022-09-27T04:41:22;4.22;;;1.73;;
44720;SDS011;30450;52.534;13.398;2022-09-27T04:43:48;3.35;;;1.75;;
44720;SDS011;30450;52.534;13.398;2022-09-27T04:46:14;4.10;;;1.55;;
44720;SDS011;30450;52.534;13.398;2022-09-27T04:48:40;2.15;;;1.67;;
44720;SDS011;30450;52.534;13.398;2022-09-27T04:51:06;2.60;;;1.40;;
44720;SDS011;30450;52.534;13.398;2022-09-27T04:53:32;3.00;;;1.77;;
44720;SDS011;30450;52.534;13.398;2022-09-27T04:55:58;3.15;;;1.73;;
44720;SDS011;30450;52.534;13.398;2022-09-27T04:58:24;5.07;;;1.98;;
44720;SDS011;30450;52.534;13.398;2022-09-27T05:00:50;1.77;;;1.50;;
44720;SDS011;30450;52.534;13.398;2022-09-27T05:03:20;3.60;;;2.15;;
44720;SDS011;30450;52.534;13.398;2022-09-27T05:05:46;4.85;;;2.03;;
44720;SDS011;30450;52.534;13.398;2022-09-27T05:08:12;3.30;;;1.75;;
44720;SDS011;30450;52.534;13.398;2022-09-27T05:10:41;3.65;;;2.13;;
44720;SDS011;30450;52.534;13.398;2022-09-27T05:13:07;7.15;;;2.00;;
44720;SDS011;30450;52.534;13.398;2022-09-27T05:15:33;7.45;;;3.63;;
44720;SDS011;30450;52.534;13.398;2022-09-27T05:17:59;3.00;;;2.28;;
44720;SDS011;30450;52.534;13.398;2022-09-27T05:20:26;6.53;;;2.78;;
44720;SDS011;30450;52.534;13.398;2022-09-27T05:22:52;4.35;;;2.70;;
44720;SDS011;30450;52.534;13.398;2022-09-27T05:25:18;4.53;;;1.55;;
44720;SDS011;30450;52.534;13.398;2022-09-27T05:27:43;4.40;;;3.10;;
44720;SDS011;30450;52.534;13.398;2022-09-27T05:30:09;3.60;;;2.35;;
44720;SDS011;30450;52.534;13.398;2022-09-27T05:32:38;6.38;;;2.53;;
44720;SDS011;30450;52.534;13.398;2022-09-27T05:35:06;5.20;;;1.83;;
44720;SDS011;30450;52.534;13.398;2022-09-27T05:37:32;3.65;;;2.53;;
44720;SDS011;30450;52.534;13.398;2022-09-27T05:39:58;3.58;;;2.58;;
44720;SDS011;30450;52.534;13.398;2022-09-27T05:42:24;3.22;;;2.35;;
44720;SDS011;30450;52.534;13.398;2022-09-27T05:44:49;4.70;;;2.65;;
44720;SDS011;30450;52.534;13.398;2022-09-27T05:47:15;3.20;;;2.10;;
44720;SDS011;30450;52.534;13.398;2022-09-27T05:49:41;5.70;;;2.00;;
44720;SDS011;30450;52.534;13.398;2022-09-27T05:52:06;5.35;;;2.75;;
44720;SDS011;30450;52.534;13.398;2022-09-27T05:54:32;2.85;;;2.47;;
44720;SDS011;30450;52.534;13.398;2022-09-27T05:56:58;11.25;;;2.25;;
44720;SDS011;30450;52.534;13.398;2022-09-27T05:59:25;3.67;;;2.78;;
44720;SDS011;30450;52.534;13.398;2022-09-27T06:01:51;6.60;;;2.67;;
44720;SDS011;30450;52.534;13.398;2022-09-27T06:04:17;4.00;;;2.90;;
44720;SDS011;30450;52.534;13.398;2022-09-27T06:06:43;4.80;;;2.92;;
44720;SDS011;30450;52.534;13.398;2022-09-27T06:09:10;3.15;;;2.58;;
44720;SDS011;30450;52.534;13.398;2022-09-27T06:11:36;5.97;;;2.90;;
44720;SDS011;30450;52.534;13.398;2022-09-27T06:14:01;5.65;;;2.97;;
44720;SDS011;30450;52.534;13.398;2022-09-27T06:16:27;12.13;;;2.53;;
44720;SDS011;30450;52.534;13.398;2022-09-27T06:18:53;6.28;;;2.72;;
44720;SDS011;30450;52.534;13.398;2022-09-27T06:21:19;7.13;;;2.92;;
44720;SDS011;30450;52.534;13.398;2022-09-27T06:23:45;3.15;;;2.13;;
44720;SDS011;30450;52.534;13.398;2022-09-27T06:26:11;3.78;;;2.67;;
44720;SDS011;30450;52.534;13.398;2022-09-27T06:28:37;4.97;;;2.47;;
44720;SDS011;30450;52.534;13.398;2022-09-27T06:31:06;6.43;;;2.95;;
44720;SDS011;30450;52.534;13.398;2022-09-27T06:33:36;2.97;;;2.42;;
44720;SDS011;30450;52.534;13.398;2022-09-27T06:36:05;6.43;;;2.75;;
44720;SDS011;30450;52.534;13.398;2022-09-27T06:38:31;4.63;;;2.50;;
44720;SDS011;30450;52.534;13.398;2022-09-27T06:41:01;5.60;;;2.72;;
44720;SDS011;30450;52.534;13.398;2022-09-27T06:43:28;4.15;;;2.80;;
44720;SDS011;30450;52.534;13.398;2022-09-27T06:45:54;3.25;;;2.30;;
44720;SDS011;30450;52.534;13.398;2022-09-27T06:48:21;5.28;;;2.53;;
44720;SDS011;30450;52.534;13.398;2022-09-27T06:50:46;7.57;;;2.35;;
44720;SDS011;30450;52.534;13.398;2022-09-27T06:53:14;2.65;;;2.45;;
44720;SDS011;30450;52.534;13.398;2022-09-27T06:55:40;7.15;;;3.05;;
44720;SDS011;30450;52.534;13.398;2022-09-27T06:58:06;8.38;;;3.45;;
44720;SDS011;30450;52.534;13.398;2022-09-27T07:00:51;11.35;;;3.13;;
44720;SDS011;30450;52.534;13.398;2022-09-27T07:03:21;6.82;;;2.38;;
44720;SDS011;30450;52.534;13.398;2022-09-27T07:05:59;8.02;;;2.72;;
44720;SDS011;30450;52.534;13.398;2022-09-27T07:08:26;6.82;;;3.60;;
44720;SDS011;30450;52.534;13.398;2022-09-27T07:10:53;6.57;;;3.13;;
44720;SDS011;30450;52.534;13.398;2022-09-27T07:13:20;4.88;;;3.42;;
44720;SDS011;30450;52.534;13.398;2022-09-27T07:15:46;3.30;;;2.92;;
44720;SDS011;30450;52.534;13.398;2022-09-27T07:18:12;5.15;;;3.05;;
44720;SDS011;30450;52.534;13.398;2022-09-27T07:20:38;6.72;;;3.42;;
44720;SDS011;30450;52.534;13.398;2022-09-27T07:23:07;4.22;;;3.50;;
44720;SDS011;30450;52.534;13.398;2022-09-27T07:25:33;4.15;;;2.53;;
44720;SDS011;30450;52.534;13.398;2022-09-27T07:28:00;7.07;;;4.00;;
44720;SDS011;30450;52.534;13.398;2022-09-27T07:30:26;5.43;;;3.80;;
44720;SDS011;30450;52.534;13.398;2022-09-27T07:32:56;7.15;;;4.30;;
44720;SDS011;30450;52.534;13.398;2022-09-27T07:35:23;5.07;;;3.83;;
44720;SDS011;30450;52.534;13.398;2022-09-27T07:37:50;8.88;;;3.20;;
44720;SDS011;30450;52.534;13.398;2022-09-27T07:40:16;6.28;;;3.35;;
44720;SDS011;30450;52.534;13.398;2022-09-27T07:42:42;4.53;;;3.67;;
44720;SDS011;30450;52.534;13.398;2022-09-27T07:45:08;8.57;;;4.18;;
44720;SDS011;30450;52.534;13.398;2022-09-27T07:47:34;6.80;;;3.70;;
44720;SDS011;30450;52.534;13.398;2022-09-27T07:50:02;4.60;;;2.70;;
44720;SDS011;30450;52.534;13.398;2022-09-27T07:52:28;3.78;;;3.05;;
44720;SDS011;30450;52.534;13.398;2022-09-27T07:54:54;5.93;;;3.53;;
44720;SDS011;30450;52.534;13.398;2022-09-27T07:57:21;7.00;;;3.22;;
44720;SDS011;30450;52.534;13.398;2022-09-27T07:59:48;3.08;;;2.10;;
44720;SDS011;30450;52.534;13.398;2022-09-27T08:02:14;7.18;;;4.53;;
44720;SDS011;30450;52.534;13.398;2022-09-27T08:04:41;4.72;;;3.50;;
44720;SDS011;30450;52.534;13.398;2022-09-27T08:07:11;5.07;;;2.88;;
44720;SDS011;30450;52.534;13.398;2022-09-27T08:09:37;7.88;;;3.03;;
44720;SDS011;30450;52.534;13.398;2022-09-27T08:12:02;3.35;;;2.45;;
44720;SDS011;30450;52.534;13.398;2022-09-27T08:14:31;4.10;;;2.72;;
44720;SDS011;30450;52.534;13.398;2022-09-27T08:16:57;8.20;;;2.70;;
44720;SDS011;30450;52.534;13.398;2022-09-27T08:19:23;5.70;;;3.08;;
44720;SDS011;30450;52.534;13.398;2022-09-27T08:21:51;2.80;;;2.35;;
44720;SDS011;30450;52.534;13.398;2022-09-27T08:24:19;5.10;;;3.13;;
44720;SDS011;30450;52.534;13.398;2022-09-27T08:26:45;5.38;;;2.90;;
44720;SDS011;30450;52.534;13.398;2022-09-27T08:29:11;5.10;;;3.08;;
44720;SDS011;30450;52.534;13.398;2022-09-27T08:31:37;5.72;;;3.47;;
44720;SDS011;30450;52.534;13.398;2022-09-27T08:34:03;8.63;;;3.60;;
44720;SDS011;30450;52.534;13.398;2022-09-27T08:36:29;3.03;;;2.08;;
44720;SDS011;30450;52.534;13.398;2022-09-27T08:38:56;5.43;;;2.50;;
44720;SDS011;30450;52.534;13.398;2022-09-27T08:48:58;4.30;;;3.00;;
44720;SDS011;30450;52.534;13.398;2022-09-27T08:51:28;4.03;;;2.42;;
44720;SDS011;30450;52.534;13.398;2022-09-27T08:53:56;3.03;;;2.80;;
44720;SDS011;30450;52.534;13.398;2022-09-27T08:56:24;10.88;;;3.53;;
44720;SDS011;30450;52.534;13.398;2022-09-27T08:58:51;5.43;;;3.30;;
44720;SDS011;30450;52.534;13.398;2022-09-27T09:01:17;5.00;;;2.95;;
44720;SDS011;30450;52.534;13.398;2022-09-27T09:03:45;3.97;;;2.92;;
44720;SDS011;30450;52.534;13.398;2022-09-27T09:06:29;6.03;;;3.17;;
44720;SDS011;30450;52.534;13.398;2022-09-27T09:11:44;3.28;;;2.47;;
44720;SDS011;30450;52.534;13.398;2022-09-27T09:14:34;3.92;;;2.88;;
44720;SDS011;30450;52.534;13.398;2022-09-27T09:19:41;5.57;;;3.20;;
44720;SDS011;30450;52.534;13.398;2022-09-27T09:34:55;6.15;;;3.33;;
44720;SDS011;30450;52.534;13.398;2022-09-27T09:39:58;4.05;;;2.83;;
44720;SDS011;30450;52.534;13.398;2022-09-27T09:42:32;2.78;;;2.55;;
44720;SDS011;30450;52.534;13.398;2022-09-27T09:49:52;4.28;;;2.72;;
44720;SDS011;30450;52.534;13.398;2022-09-27T09:52:20;8.10;;;2.92;;
44720;SDS011;30450;52.534;13.398;2022-09-27T09:54:52;8.82;;;2.72;;
44720;SDS011;30450;52.534;13.398;2022-09-27T09:57:32;5.05;;;2.35;;
44720;SDS011;30450;52.534;13.398;2022-09-27T10:00:01;3.55;;;2.90;;
44720;SDS011;30450;52.534;13.398;2022-09-27T10:02:36;6.95;;;2.67;;
44720;SDS011;30450;52.534;13.398;2022-09-27T10:05:03;6.85;;;3.92;;
44720;SDS011;30450;52.534;13.398;2022-09-27T10:07:30;6.03;;;3.90;;
44720;SDS011;30450;52.534;13.398;2022-09-27T10:09:58;4.45;;;3.65;;
44720;SDS011;30450;52.534;13.398;2022-09-27T10:12:24;4.03;;;3.33;;
44720;SDS011;30450;52.534;13.398;2022-09-27T10:14:50;4.82;;;3.97;;
44720;SDS011;30450;52.534;13.398;2022-09-27T10:17:18;2.60;;;1.85;;
44720;SDS011;30450;52.534;13.398;2022-09-27T10:19:44;4.65;;;2.72;;
44720;SDS011;30450;52.534;13.398;2022-09-27T10:22:57;2.88;;;2.58;;
44720;SDS011;30450;52.534;13.398;2022-09-27T10:24:58;3.25;;;2.88;;
44720;SDS011;30450;52.534;13.398;2022-09-27T10:27:25;3.97;;;2.45;;
44720;SDS011;30450;52.534;13.398;2022-09-27T10:29:55;4.03;;;2.60;;
44720;SDS011;30450;52.534;13.398;2022-09-27T10:32:22;5.05;;;2.70;;
44720;SDS011;30450;52.534;13.398;2022-09-27T10:34:50;1.55;;;1.45;;
44720;SDS011;30450;52.534;13.398;2022-09-27T10:37:16;3.47;;;2.28;;
44720;SDS011;30450;52.534;13.398;2022-09-27T10:39:44;11.07;;;3.20;;
44720;SDS011;30450;52.534;13.398;2022-09-27T10:44:55;4.80;;;2.80;;
44720;SDS011;30450;52.534;13.398;2022-09-27T10:47:21;3.05;;;2.10;;
44720;SDS011;30450;52.534;13.398;2022-09-27T10:49:48;6.00;;;3.28;;
44720;SDS011;30450;52.534;13.398;2022-09-27T10:52:17;4.25;;;3.03;;
44720;SDS011;30450;52.534;13.398;2022-09-27T10:57:20;10.30;;;2.65;;
44720;SDS011;30450;52.534;13.398;2022-09-27T10:59:51;3.65;;;3.08;;
44720;SDS011;30450;52.534;13.398;2022-09-27T11:02:19;5.25;;;2.60;;
44720;SDS011;30450;52.534;13.398;2022-09-27T11:05:00;12.63;;;2.80;;
44720;SDS011;30450;52.534;13.398;2022-09-27T11:07:27;3.45;;;3.15;;
44720;SDS011;30450;52.534;13.398;2022-09-27T11:09:53;4.93;;;2.63;;
44720;SDS011;30450;52.534;13.398;2022-09-27T11:12:20;9.73;;;3.00;;
44720;SDS011;30450;52.534;13.398;2022-09-27T11:17:25;5.65;;;3.33;;
44720;SDS011;30450;52.534;13.398;2022-09-27T11:19:55;4.65;;;3.33;;
44720;SDS011;30450;52.534;13.398;2022-09-27T11:22:31;6.78;;;3.45;;
44720;SDS011;30450;52.534;13.398;2022-09-27T11:25:04;4.03;;;3.30;;
44720;SDS011;30450;52.534;13.398;2022-09-27T11:30:18;6.65;;;3.97;;
44720;SDS011;30450;52.534;13.398;2022-09-27T11:35:29;5.30;;;3.40;;
44720;SDS011;30450;52.534;13.398;2022-09-27T11:40:26;4.95;;;3.17;;
44720;SDS011;30450;52.534;13.398;2022-09-27T11:51:23;4.90;;;4.13;;
44720;SDS011;30450;52.534;13.398;2022-09-27T11:56:33;3.47;;;2.08;;
44720;SDS011;30450;52.534;13.398;2022-09-27T11:59:07;3.83;;;2.42;;
44720;SDS011;30450;52.534;13.398;2022-09-27T12:07:17;8.55;;;3.35;;
44720;SDS011;30450;52.534;13.398;2022-09-27T12:09:50;7.85;;;4.80;;
44720;SDS011;30450;52.534;13.398;2022-09-27T12:12:18;7.63;;;4.40;;
44720;SDS011;30450;52.534;13.398;2022-09-27T12:14:46;7.22;;;4.65;;
44720;SDS011;30450;52.534;13.398;2022-09-27T12:17:15;9.95;;;4.90;;
44720;SDS011;30450;52.534;13.398;2022-09-27T12:19:44;9.85;;;5.97;;
44720;SDS011;30450;52.534;13.398;2022-09-27T12:22:13;6.68;;;4.60;;
44720;SDS011;30450;52.534;13.398;2022-09-27T12:27:15;8.10;;;4.55;;
44720;SDS011;30450;52.534;13.398;2022-09-27T12:29:43;6.33;;;3.60;;
44720;SDS011;30450;52.534;13.398;2022-09-27T12:32:31;3.45;;;2.65;;
44720;SDS011;30450;52.534;13.398;2022-09-27T12:35:02;6.18;;;2.47;;
44720;SDS011;30450;52.534;13.398;2022-09-27T12:37:36;8.48;;;2.90;;
44720;SDS011;30450;52.534;13.398;2022-09-27T12:40:06;2.60;;;2.03;;
44720;SDS011;30450;52.534;13.398;2022-09-27T12:42:41;5.13;;;2.50;;
44720;SDS011;30450;52.534;13.398;2022-09-27T12:45:10;2.47;;;1.95;;
44720;SDS011;30450;52.534;13.398;2022-09-27T12:52:52;2.55;;;2.10;;
44720;SDS011;30450;52.534;13.398;2022-09-27T12:55:26;4.97;;;2.40;;
44720;SDS011;30450;52.534;13.398;2022-09-27T13:00:45;2.70;;;1.38;;
44720;SDS011;30450;52.534;13.398;2022-09-27T13:03:22;2.17;;;1.75;;
44720;SDS011;30450;52.534;13.398;2022-09-27T13:13:29;3.03;;;1.90;;
44720;SDS011;30450;52.534;13.398;2022-09-27T13:15:56;4.15;;;1.70;;
44720;SDS011;30450;52.534;13.398;2022-09-27T13:18:30;3.00;;;1.90;;
44720;SDS011;30450;52.534;13.398;2022-09-27T13:20:57;1.75;;;1.65;;
44720;SDS011;30450;52.534;13.398;2022-09-27T13:31:04;2.03;;;1.52;;
44720;SDS011;30450;52.534;13.398;2022-09-27T13:46:44;3.35;;;1.80;;
44720;SDS011;30450;52.534;13.398;2022-09-27T13:49:15;2.70;;;2.03;;
44720;SDS011;30450;52.534;13.398;2022-09-27T13:51:50;2.28;;;2.08;;
44720;SDS011;30450;52.534;13.398;2022-09-27T13:56:59;4.63;;;2.30;;
44720;SDS011;30450;52.534;13.398;2022-09-27T13:59:28;6.13;;;2.42;;
44720;SDS011;30450;52.534;13.398;2022-09-27T14:02:01;2.42;;;2.17;;
44720;SDS011;30450;52.534;13.398;2022-09-27T14:04:30;2.10;;;1.75;;
44720;SDS011;30450;52.534;13.398;2022-09-27T14:07:00;4.63;;;1.88;;
44720;SDS011;30450;52.534;13.398;2022-09-27T14:09:28;2.88;;;1.70;;
44720;SDS011;30450;52.534;13.398;2022-09-27T14:11:55;2.58;;;1.90;;
44720;SDS011;30450;52.534;13.398;2022-09-27T14:14:23;5.43;;;1.80;;
44720;SDS011;30450;52.534;13.398;2022-09-27T14:16:50;3.20;;;1.90;;
44720;SDS011;30450;52.534;13.398;2022-09-27T14:19:20;3.47;;;2.45;;
44720;SDS011;30450;52.534;13.398;2022-09-27T14:21:47;4.18;;;2.40;;
44720;SDS011;30450;52.534;13.398;2022-09-27T14:24:18;4.85;;;1.52;;
44720;SDS011;30450;52.534;13.398;2022-09-27T14:26:44;2.97;;;2.15;;
44720;SDS011;30450;52.534;13.398;2022-09-27T14:29:20;2.83;;;2.13;;
44720;SDS011;30450;52.534;13.398;2022-09-27T14:31:47;2.20;;;2.00;;
44720;SDS011;30450;52.534;13.398;2022-09-27T14:34:27;2.95;;;1.63;;
44720;SDS011;30450;52.534;13.398;2022-09-27T14:36:53;1.30;;;1.20;;
44720;SDS011;30450;52.534;13.398;2022-09-27T14:39:37;5.20;;;1.88;;
44720;SDS011;30450;52.534;13.398;2022-09-27T14:42:04;3.55;;;1.90;;
44720;SDS011;30450;52.534;13.398;2022-09-27T14:44:31;2.53;;;1.85;;
44720;SDS011;30450;52.534;13.398;2022-09-27T14:47:08;3.70;;;2.13;;
44720;SDS011;30450;52.534;13.398;2022-09-27T14:49:34;2.30;;;1.65;;
44720;SDS011;30450;52.534;13.398;2022-09-27T14:52:00;1.70;;;1.60;;
44720;SDS011;30450;52.534;13.398;2022-09-27T14:54:28;5.35;;;1.80;;
44720;SDS011;30450;52.534;13.398;2022-09-27T14:57:15;2.38;;;2.08;;
44720;SDS011;30450;52.534;13.398;2022-09-27T14:59:45;2.40;;;1.50;;
44720;SDS011;30450;52.534;13.398;2022-09-27T15:02:19;2.15;;;1.95;;
44720;SDS011;30450;52.534;13.398;2022-09-27T15:04:47;3.10;;;2.08;;
44720;SDS011;30450;52.534;13.398;2022-09-27T15:07:13;2.78;;;1.98;;
44720;SDS011;30450;52.534;13.398;2022-09-27T15:09:42;3.47;;;2.17;;
44720;SDS011;30450;52.534;13.398;2022-09-27T15:12:08;7.18;;;2.35;;
44720;SDS011;30450;52.534;13.398;2022-09-27T15:14:35;2.35;;;2.15;;
44720;SDS011;30450;52.534;13.398;2022-09-27T15:17:05;2.53;;;2.28;;
44720;SDS011;30450;52.534;13.398;2022-09-27T15:19:31;3.90;;;2.75;;
44720;SDS011;30450;52.534;13.398;2022-09-27T15:27:16;3.10;;;2.80;;
44720;SDS011;30450;52.534;13.398;2022-09-27T15:32:16;3.63;;;2.67;;
44720;SDS011;30450;52.534;13.398;2022-09-27T15:34:43;3.30;;;2.47;;
44720;SDS011;30450;52.534;13.398;2022-09-27T15:37:21;3.05;;;2.58;;
44720;SDS011;30450;52.534;13.398;2022-09-27T15:39:49;3.90;;;3.10;;
44720;SDS011;30450;52.534;13.398;2022-09-27T15:42:15;5.13;;;2.60;;
44720;SDS011;30450;52.534;13.398;2022-09-27T15:55:05;5.68;;;3.35;;
44720;SDS011;30450;52.534;13.398;2022-09-27T15:57:30;5.57;;;3.65;;
44720;SDS011;30450;52.534;13.398;2022-09-27T15:59:57;4.05;;;3.17;;
44720;SDS011;30450;52.534;13.398;2022-09-27T16:02:23;3.30;;;3.00;;
44720;SDS011;30450;52.534;13.398;2022-09-27T16:04:49;4.55;;;3.75;;
44720;SDS011;30450;52.534;13.398;2022-09-27T16:07:15;4.47;;;3.60;;
44720;SDS011;30450;52.534;13.398;2022-09-27T16:09:40;4.03;;;3.63;;
44720;SDS011;30450;52.534;13.398;2022-09-27T16:12:07;6.03;;;3.47;;
44720;SDS011;30450;52.534;13.398;2022-09-27T16:14:33;6.30;;;4.03;;
44720;SDS011;30450;52.534;13.398;2022-09-27T16:16:59;9.05;;;3.60;;
44720;SDS011;30450;52.534;13.398;2022-09-27T16:19:25;3.85;;;3.45;;
44720;SDS011;30450;52.534;13.398;2022-09-27T16:21:51;5.35;;;2.90;;
44720;SDS011;30450;52.534;13.398;2022-09-27T16:24:16;5.78;;;3.20;;
44720;SDS011;30450;52.534;13.398;2022-09-27T16:26:43;3.78;;;2.97;;
44720;SDS011;30450;52.534;13.398;2022-09-27T16:29:09;7.22;;;2.55;;
44720;SDS011;30450;52.534;13.398;2022-09-27T16:31:37;3.33;;;2.30;;
44720;SDS011;30450;52.534;13.398;2022-09-27T16:34:03;2.95;;;2.38;;
44720;SDS011;30450;52.534;13.398;2022-09-27T16:36:29;3.60;;;2.40;;
44720;SDS011;30450;52.534;13.398;2022-09-27T16:38:55;3.17;;;2.28;;
44720;SDS011;30450;52.534;13.398;2022-09-27T16:41:21;3.13;;;1.80;;
44720;SDS011;30450;52.534;13.398;2022-09-27T16:43:47;1.92;;;1.55;;
44720;SDS011;30450;52.534;13.398;2022-09-27T16:46:13;2.22;;;1.77;;
44720;SDS011;30450;52.534;13.398;2022-09-27T16:48:43;2.55;;;2.17;;
44720;SDS011;30450;52.534;13.398;2022-09-27T16:51:10;3.95;;;2.30;;
44720;SDS011;30450;52.534;13.398;2022-09-27T16:53:55;3.28;;;1.73;;
44720;SDS011;30450;52.534;13.398;2022-09-27T16:56:21;3.72;;;2.10;;
44720;SDS011;30450;52.534;13.398;2022-09-27T16:58:47;3.72;;;1.73;;
44720;SDS011;30450;52.534;13.398;2022-09-27T17:01:13;2.55;;;1.60;;
44720;SDS011;30450;52.534;13.398;2022-09-27T17:06:07;3.88;;;2.65;;
44720;SDS011;30450;52.534;13.398;2022-09-27T17:08:32;2.35;;;2.10;;
44720;SDS011;30450;52.534;13.398;2022-09-27T17:10:58;2.47;;;2.28;;
44720;SDS011;30450;52.534;13.398;2022-09-27T17:13:24;3.67;;;1.85;;
44720;SDS011;30450;52.534;13.398;2022-09-27T17:15:50;3.17;;;2.10;;
44720;SDS011;30450;52.534;13.398;2022-09-27T17:18:16;2.88;;;2.30;;
44720;SDS011;30450;52.534;13.398;2022-09-27T17:20:42;2.67;;;1.67;;